WetterOnline ( http://www.wetteronline.de )

Wetter aktuell Weißenburg

Aktuelles Wetter: Weißenburg (424m)

6-stündlich | Neueste Meldungen
Ortszeit Temperatur Wetter
Fr, 19.10. 8:00 6.5° C Nebel
Fr, 19.10. 2:00 8.2° C wolkenlos
Do, 18.10. 20:00 13.9° C wolkig
Do, 18.10. 14:00 18.2° C leicht bewölkt
Do, 18.10. 8:00 4.7° C leicht bewölkt
Do, 18.10. 2:00 7.0° C leicht bewölkt
Mi, 17.10. 20:00 14.5° C wolkenlos
Mi, 17.10. 14:00 20.2° C wolkenlos
Ortszeit Temperatur Wetter
Fr, 19.10. 13:30 13.1° C wolkenlos
Fr, 19.10. 13:20 13.1° C wolkenlos
Fr, 19.10. 13:10 12.5° C fast wolkenlos
Fr, 19.10. 13:00 11.4° C leicht bewölkt
Fr, 19.10. 12:50 11.4° C leicht bewölkt
Fr, 19.10. 12:40 10.7° C leicht bewölkt
Fr, 19.10. 12:30 10.3° C bewölkt
Fr, 19.10. 12:00 9.1° C bedeckt
Fr, 19.10. 11:30 8.5° C Nebel
Fr, 19.10. 11:00 7.9° C Nebel
Fr, 19.10. 10:30 7.6° C Nebel
Ortszeit Relative Feuchte Sichtweite
Fr, 19.10. 8:00 100% <100 m
Fr, 19.10. 2:00 96% 2.8 km
Do, 18.10. 20:00 74% 9 km
Do, 18.10. 14:00 58% 8 km
Do, 18.10. 8:00 99% 3.3 km
Do, 18.10. 2:00 97% 6 km
Mi, 17.10. 20:00 65% 24 km
Mi, 17.10. 14:00 47% 18 km
Ortszeit Relative Feuchte Sichtweite
Fr, 19.10. 13:30 77% 4.3 km
Fr, 19.10. 13:20 77% -
Fr, 19.10. 13:10 78% -
Fr, 19.10. 13:00 83% 3.1 km
Fr, 19.10. 12:50 83% -
Fr, 19.10. 12:40 88% -
Fr, 19.10. 12:30 95% 2.3 km
Fr, 19.10. 12:00 100% 1.5 km
Fr, 19.10. 11:30 100% 0.3 km
Fr, 19.10. 11:00 100% 100 m
Fr, 19.10. 10:30 100% 100 m
Ortszeit Niederschlagsmenge Niederschlagsart
Fr, 19.10. 8:00 0.1 l/m2 in 12 Std. -
Fr, 19.10. 2:00 0.0 l/m2 in 6 Std. -
Do, 18.10. 20:00 0.0 l/m2 in 12 Std. -
Do, 18.10. 14:00 0.0 l/m2 in 6 Std. -
Do, 18.10. 8:00 0.0 l/m2 in 12 Std. -
Do, 18.10. 2:00 0.0 l/m2 in 6 Std. -
Mi, 17.10. 20:00 0.0 l/m2 in 12 Std. -
Mi, 17.10. 14:00 0.0 l/m2 in 6 Std. -
Ortszeit Niederschlagsmenge Niederschlagsart
Fr, 19.10. 13:30 0.0 l/m2 in 1 Std. -
Fr, 19.10. 13:20 keine Meldung -
Fr, 19.10. 13:10 keine Meldung -
Fr, 19.10. 13:00 0.0 l/m2 in 1 Std. -
Fr, 19.10. 12:50 keine Meldung -
Fr, 19.10. 12:40 keine Meldung -
Fr, 19.10. 12:30 0.0 l/m2 in 1 Std. -
Fr, 19.10. 12:00 0.1 l/m2 in 1 Std. -
Fr, 19.10. 11:30 0.1 l/m2 in 1 Std. -
Fr, 19.10. 11:00 0.1 l/m2 in 1 Std. -
Fr, 19.10. 10:30 0.1 l/m2 in 1 Std. -
Ortszeit Stärke Spitze Richtung
km/h Bft. km/h Grad Sektor
Fr, 19.10. 8:00 4 1 11 30° NO
Fr, 19.10. 2:00 7 2 14 320° NW
Do, 18.10. 20:00 6 1 22 20° N
Do, 18.10. 14:00 9 2 15 20° N
Do, 18.10. 8:00 4 1 14 220° SW
Do, 18.10. 2:00 7 2 11 200° S
Mi, 17.10. 20:00 4 1 14 180° S
Mi, 17.10. 14:00 4 1 11 320° NW
Ortszeit Stärke Spitze Richtung
km/h Bft. km/h Grad Sektor
Fr, 19.10. 13:30 7 2 11 30° NO
Fr, 19.10. 13:20 7 2 - 30° NO
Fr, 19.10. 13:10 6 1 - 40° NO
Fr, 19.10. 13:00 4 1 7 110° O
Fr, 19.10. 12:50 4 1 - 110° O
Fr, 19.10. 12:40 4 1 - 80° O
Fr, 19.10. 12:30 4 1 7 20° N
Fr, 19.10. 12:00 4 1 11 30° NO
Fr, 19.10. 11:30 4 1 7 330° NW
Fr, 19.10. 11:00 4 1 7 30° NO
Fr, 19.10. 10:30 4 1 7 350° N
Ortszeit Untergrenze Bedeckung Gattung
total tief tief mittel hoch
Fr, 19.10. 8:00 <30 m 8/8 8/8 - - -
Fr, 19.10. 2:00 - 0/8 0/8 - - -
Do, 18.10. 20:00 10500 m 7/8 0/8 - - -
Do, 18.10. 14:00 10500 m 8/8 0/8 - - -
Do, 18.10. 8:00 10500 m 6/8 0/8 - - -
Do, 18.10. 2:00 9000 m 5/8 0/8 - - -
Mi, 17.10. 20:00 2700 m 0/8 0/8 - - -
Mi, 17.10. 14:00 - 0/8 0/8 - - -
Ortszeit Bedeckungsgrad in Achtel und Wolkenuntergrenze
Fr, 19.10. 13:30 keine Wolken
Fr, 19.10. 13:20 keine Wolken
Fr, 19.10. 13:10 1(1500m)
Fr, 19.10. 13:00 2(120m)
Fr, 19.10. 12:50 2(120m)
Fr, 19.10. 12:40 4(120m)
Fr, 19.10. 12:30 8(90m) 7(1470m)
Fr, 19.10. 12:00 8(30m)
Fr, 19.10. 11:30 8(<30m)
Fr, 19.10. 11:00 8(<30m)
Fr, 19.10. 10:30 8(<30m)
Ortszeit Luftdruck NN (hPa) Tendenz (hPa in 3 Std.)
Fr, 19.10. 8:00 1024 + 0,4
Fr, 19.10. 2:00 1023 0,0
Do, 18.10. 20:00 1021 + 1,2
Do, 18.10. 14:00 1019 - 0,8
Do, 18.10. 8:00 1021 + 0,6
Do, 18.10. 2:00 1021 - 0,1
Mi, 17.10. 20:00 1019 + 0,9
Mi, 17.10. 14:00 1018 - 1,2
Ortszeit Luftdruck NN (hPa) Tendenz (hPa in 3 Std.)
Fr, 19.10. 13:30 1023 - 0,3
Fr, 19.10. 13:20 1023 keine Meldung
Fr, 19.10. 13:10 1023 keine Meldung
Fr, 19.10. 13:00 1024 + 0,2
Fr, 19.10. 12:50 1024 keine Meldung
Fr, 19.10. 12:40 1024 keine Meldung
Fr, 19.10. 12:30 1024 + 0,5
Fr, 19.10. 12:00 1024 + 0,6
Fr, 19.10. 11:30 1025 + 1,0
Fr, 19.10. 11:00 1025 + 1,2
Fr, 19.10. 10:30 1025 + 1,3
Ortszeit Schneehöhe (cm)
Fr, 19.10. 8:00 0
Fr, 19.10. 2:00 0
Do, 18.10. 20:00 0
Do, 18.10. 14:00 0
Do, 18.10. 8:00 -
Do, 18.10. 2:00 -
Mi, 17.10. 20:00 -
Mi, 17.10. 14:00 0
Ortszeit Schneehöhe (cm)
Fr, 19.10. 13:30 0
Fr, 19.10. 13:20 0
Fr, 19.10. 13:10 0
Fr, 19.10. 13:00 0
Fr, 19.10. 12:50 0
Fr, 19.10. 12:40 0
Fr, 19.10. 12:30 0
Fr, 19.10. 12:00 0
Fr, 19.10. 11:30 0
Fr, 19.10. 11:00 0
Fr, 19.10. 10:30 0
Link zu dieser Seite / Seite empfehlen

Das Wetter in ...